createdAt,value
2023-01-04T00:00:45.585Z,6.63
2023-01-04T00:01:29.353Z,6.62
2023-01-04T00:02:28.474Z,6.62
2023-01-04T00:03:28.476Z,6.63
2023-01-04T00:04:28.408Z,6.62
2023-01-04T00:05:28.346Z,6.61
2023-01-04T00:06:28.318Z,6.61
2023-01-04T00:07:31.065Z,6.62
2023-01-04T00:08:28.244Z,6.66
2023-01-04T00:09:28.233Z,6.71
2023-01-04T00:10:28.231Z,6.51
2023-01-04T00:11:28.223Z,6.41
2023-01-04T00:12:28.252Z,6.33
2023-01-04T00:13:28.275Z,6.32
2023-01-04T00:14:28.196Z,6.30
2023-01-04T00:15:28.277Z,6.35
2023-01-04T00:16:28.303Z,6.36
2023-01-04T00:17:28.163Z,6.40
2023-01-04T00:18:28.163Z,6.41
2023-01-04T00:19:28.152Z,6.41
2023-01-04T00:20:28.127Z,6.46
2023-01-04T00:21:28.086Z,6.50
2023-01-04T00:22:28.117Z,6.51
2023-01-04T00:23:28.152Z,6.53
2023-01-04T00:24:28.046Z,6.56
2023-01-04T00:25:28.053Z,6.58
2023-01-04T00:26:28.184Z,6.63
2023-01-04T00:27:27.992Z,6.65
2023-01-04T00:28:28.021Z,6.66
2023-01-04T00:29:28.018Z,6.65
2023-01-04T00:30:28.016Z,6.65
2023-01-04T00:31:28.106Z,6.65
2023-01-04T00:32:27.947Z,6.63
2023-01-04T00:33:28.225Z,6.62
2023-01-04T00:34:27.929Z,6.61
2023-01-04T00:35:45.453Z,6.62
2023-01-04T00:36:29.104Z,6.62
2023-01-04T00:37:27.969Z,6.62
2023-01-04T00:38:27.840Z,6.61
2023-01-04T00:39:28.086Z,6.59
2023-01-04T00:40:27.870Z,6.56
2023-01-04T00:41:56.928Z,6.53
2023-01-04T00:42:28.820Z,6.53
2023-01-04T00:43:27.882Z,6.51
2023-01-04T00:44:27.850Z,6.51
2023-01-04T00:45:27.777Z,6.47
2023-01-04T00:46:27.854Z,6.48
2023-01-04T00:47:27.802Z,6.50
2023-01-04T00:48:27.724Z,6.50
2023-01-04T00:49:27.846Z,6.44
2023-01-04T00:50:27.714Z,6.44
2023-01-04T00:51:27.669Z,6.41
2023-01-04T00:52:27.737Z,6.36
2023-01-04T00:53:27.691Z,6.32
2023-01-04T00:54:27.646Z,6.25
2023-01-04T00:55:27.778Z,6.19
2023-01-04T00:56:27.599Z,6.13
2023-01-04T00:57:27.621Z,6.07
2023-01-04T00:58:27.858Z,6.03
2023-01-04T00:59:27.618Z,5.96
2023-01-04T01:00:27.548Z,5.96
2023-01-04T01:01:27.625Z,5.95
2023-01-04T01:02:29.667Z,5.93
2023-01-04T01:03:30.017Z,5.96
2023-01-04T01:04:27.581Z,5.95
2023-01-04T01:05:27.605Z,5.93
2023-01-04T01:06:27.476Z,5.92
2023-01-04T01:07:27.485Z,5.91
2023-01-04T01:08:27.591Z,5.92
2023-01-04T01:09:27.433Z,5.92
2023-01-04T01:10:27.523Z,5.92
2023-01-04T01:11:27.623Z,5.92
2023-01-04T01:12:27.406Z,5.92
2023-01-04T01:13:27.385Z,5.92
2023-01-04T01:14:27.548Z,5.93
2023-01-04T01:15:27.371Z,5.95
2023-01-04T01:16:53.187Z,5.95
2023-01-04T01:17:28.494Z,5.95
2023-01-04T01:18:27.401Z,5.96
2023-01-04T01:19:27.302Z,5.96
2023-01-04T01:20:27.283Z,5.98
2023-01-04T01:21:27.525Z,5.98
2023-01-04T01:22:27.275Z,5.98
2023-01-04T01:23:27.295Z,6.01
2023-01-04T01:24:27.235Z,6.00
2023-01-04T01:25:27.265Z,6.01
2023-01-04T01:26:27.215Z,6.04
2023-01-04T01:27:27.229Z,6.06
2023-01-04T01:28:27.304Z,6.07
2023-01-04T01:29:27.235Z,6.04
2023-01-04T01:30:27.159Z,6.07
2023-01-04T01:31:27.301Z,6.06
2023-01-04T01:32:27.160Z,6.07
2023-01-04T01:33:27.152Z,6.07
2023-01-04T01:34:27.297Z,6.09
2023-01-04T01:35:27.164Z,6.10
2023-01-04T01:36:27.074Z,6.10
2023-01-04T01:37:27.059Z,6.09
2023-01-04T01:38:27.181Z,6.09
2023-01-04T01:39:27.025Z,6.07
2023-01-04T01:40:27.036Z,6.06
2023-01-04T01:41:27.067Z,6.07
2023-01-04T01:42:27.050Z,6.09
2023-01-04T01:43:26.973Z,6.06
2023-01-04T01:44:26.954Z,6.06
2023-01-04T01:45:27.080Z,6.04
2023-01-04T01:46:27.044Z,6.04
2023-01-04T01:47:26.950Z,6.06
2023-01-04T01:48:26.916Z,6.10
2023-01-04T01:49:26.884Z,6.10
2023-01-04T01:50:26.863Z,6.10
2023-01-04T01:51:26.834Z,6.11
2023-01-04T01:52:26.890Z,6.10
2023-01-04T01:53:26.892Z,6.11
2023-01-04T01:54:27.133Z,6.09
2023-01-04T01:55:27.402Z,6.09
2023-01-04T01:56:26.814Z,6.09
2023-01-04T01:57:26.803Z,6.11
2023-01-04T01:58:27.872Z,6.14
2023-01-04T01:59:26.782Z,6.13
2023-01-04T02:00:26.741Z,6.11
2023-01-04T02:01:26.803Z,6.10
2023-01-04T02:02:27.091Z,6.10
2023-01-04T02:03:26.875Z,6.13
2023-01-04T02:04:26.675Z,6.13
2023-01-04T02:05:26.663Z,6.13
2023-01-04T02:06:26.741Z,6.13
2023-01-04T02:07:26.659Z,6.13
2023-01-04T02:08:26.623Z,6.13
2023-01-04T02:09:26.895Z,6.16
2023-01-04T02:10:26.581Z,6.14
2023-01-04T02:11:26.590Z,6.13
2023-01-04T02:12:26.639Z,6.16
2023-01-04T02:13:26.572Z,6.16
2023-01-04T02:14:26.569Z,6.21
2023-01-04T02:15:26.560Z,6.21
2023-01-04T02:16:26.624Z,6.22
2023-01-04T02:17:26.539Z,6.21
2023-01-04T02:18:26.503Z,6.25
2023-01-04T02:19:26.503Z,6.25
2023-01-04T02:20:26.470Z,6.26
2023-01-04T02:21:26.458Z,6.28
2023-01-04T02:22:26.490Z,6.29
2023-01-04T02:23:26.522Z,6.29
2023-01-04T02:24:26.429Z,6.30
2023-01-04T02:25:26.410Z,6.30
2023-01-04T02:26:26.397Z,6.30
2023-01-04T02:27:26.421Z,6.32
2023-01-04T02:28:26.353Z,6.32
2023-01-04T02:29:26.358Z,6.33
2023-01-04T02:31:35.963Z,6.40
2023-01-04T02:32:35.768Z,6.40
2023-01-04T02:33:35.875Z,6.41
2023-01-04T02:34:35.689Z,6.44
2023-01-04T02:35:35.755Z,6.43
2023-01-04T02:36:35.680Z,6.46
2023-01-04T02:37:35.661Z,6.47
2023-01-04T02:38:35.655Z,6.47
2023-01-04T02:39:35.610Z,6.44
2023-01-04T02:40:35.645Z,6.47
2023-01-04T02:41:35.748Z,6.46
2023-01-04T02:42:35.642Z,6.47
2023-01-04T02:43:35.607Z,6.47
2023-01-04T02:44:41.087Z,6.48
2023-01-04T02:45:35.619Z,6.51
2023-01-04T02:46:35.590Z,6.48
2023-01-04T02:47:35.594Z,6.48
2023-01-04T02:48:35.564Z,6.50
2023-01-04T02:49:35.526Z,6.48
2023-01-04T02:50:35.601Z,6.50
2023-01-04T02:51:35.535Z,6.50
2023-01-04T02:52:35.568Z,6.53
2023-01-04T02:53:41.084Z,6.50
2023-01-04T02:54:35.453Z,6.48
2023-01-04T02:55:35.429Z,6.48
2023-01-04T02:56:35.620Z,6.48
2023-01-04T02:57:35.533Z,6.47
2023-01-04T02:58:35.413Z,6.46
2023-01-04T02:59:35.357Z,6.46
2023-01-04T03:00:35.551Z,6.47
2023-01-04T03:01:35.470Z,6.47
2023-01-04T03:02:35.655Z,6.43
2023-01-04T03:03:35.549Z,6.43
2023-01-04T03:04:35.278Z,6.44
2023-01-04T03:05:35.300Z,6.43
2023-01-04T03:06:35.447Z,6.41
2023-01-04T03:07:35.318Z,6.41
2023-01-04T03:08:35.235Z,6.41
2023-01-04T03:09:35.271Z,6.41
2023-01-04T03:10:35.263Z,6.38
2023-01-04T03:11:35.227Z,6.35
2023-01-04T03:12:35.261Z,6.38
2023-01-04T03:13:35.246Z,6.38
2023-01-04T03:14:35.186Z,6.38
2023-01-04T03:15:35.188Z,6.35
2023-01-04T03:16:35.366Z,6.35
2023-01-04T03:17:35.137Z,6.36
2023-01-04T03:18:35.126Z,6.33
2023-01-04T03:19:35.106Z,6.36
2023-01-04T03:20:35.159Z,6.33
2023-01-04T03:21:35.077Z,6.33
2023-01-04T03:22:35.076Z,6.32
2023-01-04T03:23:35.075Z,6.33
2023-01-04T03:24:35.095Z,6.33
2023-01-04T03:25:35.026Z,6.33
2023-01-04T03:26:35.091Z,6.32
2023-01-04T03:27:35.014Z,6.30
2023-01-04T03:28:34.971Z,6.32
2023-01-04T03:29:34.975Z,6.32
2023-01-04T03:30:34.974Z,6.33
2023-01-04T03:31:35.082Z,6.36
2023-01-04T03:32:35.208Z,6.36
2023-01-04T03:33:34.942Z,6.40
2023-01-04T03:34:34.911Z,6.41
2023-01-04T03:35:34.876Z,6.40
2023-01-04T03:36:35.014Z,6.38
2023-01-04T03:37:34.954Z,6.35
2023-01-04T03:38:34.862Z,6.33
2023-01-04T03:39:34.982Z,6.32
2023-01-04T03:40:34.844Z,6.30
2023-01-04T03:41:34.843Z,6.33
2023-01-04T03:42:35.078Z,6.35
2023-01-04T03:43:34.793Z,6.32
2023-01-04T03:44:34.807Z,6.29
2023-01-04T03:45:34.927Z,6.30
2023-01-04T03:46:34.801Z,6.30
2023-01-04T03:47:34.713Z,6.30
2023-01-04T03:48:34.806Z,6.29
2023-01-04T03:49:34.701Z,6.30
2023-01-04T03:50:34.725Z,6.28
2023-01-04T03:51:34.979Z,6.29
2023-01-04T03:52:34.721Z,6.33
2023-01-04T03:53:34.723Z,6.32
2023-01-04T03:54:34.623Z,6.32
2023-01-04T03:55:34.715Z,6.32
2023-01-04T03:56:34.645Z,6.32
2023-01-04T03:57:34.650Z,6.32
2023-01-04T03:58:34.592Z,6.33
2023-01-04T03:59:34.571Z,6.33
2023-01-04T04:00:34.578Z,6.35
2023-01-04T04:01:34.657Z,6.33
2023-01-04T04:02:34.550Z,6.35
2023-01-04T04:03:34.623Z,6.38
2023-01-04T04:04:34.511Z,6.38
2023-01-04T04:05:34.530Z,6.38
2023-01-04T04:06:34.485Z,6.40
2023-01-04T04:07:34.520Z,6.40
2023-01-04T04:08:34.583Z,6.43
2023-01-04T04:09:34.491Z,6.46
2023-01-04T04:10:34.434Z,6.47
2023-01-04T04:11:34.626Z,6.50
2023-01-04T04:12:34.391Z,6.50
2023-01-04T04:13:34.390Z,6.53
2023-01-04T04:14:34.375Z,6.53
2023-01-04T04:15:34.500Z,6.59
2023-01-04T04:16:34.397Z,6.62
2023-01-04T04:17:34.403Z,6.61
2023-01-04T04:18:34.421Z,6.61
2023-01-04T04:19:34.311Z,6.62
2023-01-04T04:20:34.291Z,6.65
2023-01-04T04:21:34.560Z,6.69
2023-01-04T04:22:34.295Z,6.69
2023-01-04T04:23:34.268Z,6.68
2023-01-04T04:24:34.249Z,6.69
2023-01-04T04:25:34.262Z,6.71
2023-01-04T04:26:34.239Z,6.71
2023-01-04T04:27:34.379Z,6.71
2023-01-04T04:28:34.215Z,6.73
2023-01-04T04:29:34.249Z,6.72
2023-01-04T04:30:34.190Z,6.72
2023-01-04T04:31:34.303Z,6.76
2023-01-04T04:32:34.138Z,6.77
2023-01-04T04:33:34.159Z,6.73
2023-01-04T04:34:34.186Z,6.73
2023-01-04T04:35:34.099Z,6.72
2023-01-04T04:36:34.103Z,6.72
2023-01-04T04:37:34.208Z,6.72
2023-01-04T04:38:34.095Z,6.72
2023-01-04T04:39:34.138Z,6.72
2023-01-04T04:40:34.063Z,6.76
2023-01-04T04:41:34.054Z,6.79
2023-01-04T04:42:34.013Z,6.77
2023-01-04T04:43:34.027Z,6.76
2023-01-04T04:44:34.048Z,6.76
2023-01-04T04:45:34.074Z,6.76
2023-01-04T04:46:33.958Z,6.73
2023-01-04T04:47:33.999Z,6.73
2023-01-04T04:48:33.937Z,6.73
2023-01-04T04:49:33.958Z,6.73
2023-01-04T04:50:33.923Z,6.73
2023-01-04T04:51:33.945Z,6.77
2023-01-04T04:52:33.895Z,6.80
2023-01-04T04:53:33.906Z,6.80
2023-01-04T04:54:33.887Z,6.80
2023-01-04T04:55:33.887Z,6.80
2023-01-04T04:56:43.212Z,6.84
2023-01-04T04:57:33.871Z,6.84
2023-01-04T04:58:33.795Z,6.83
2023-01-04T04:59:33.999Z,6.81
2023-01-04T05:00:33.776Z,6.84
2023-01-04T05:01:33.893Z,6.84
2023-01-04T05:02:34.120Z,6.86
2023-01-04T05:03:33.787Z,6.86
2023-01-04T05:04:33.745Z,6.84
2023-01-04T05:05:33.834Z,6.86
2023-01-04T05:06:33.713Z,6.87
2023-01-04T05:07:33.686Z,6.86
2023-01-04T05:08:33.824Z,6.87
2023-01-04T05:09:33.653Z,6.87
2023-01-04T05:10:33.635Z,6.89
2023-01-04T05:11:33.840Z,6.91
2023-01-04T05:12:33.656Z,6.95
2023-01-04T05:13:33.606Z,6.95
2023-01-04T05:14:33.797Z,6.94
2023-01-04T05:15:33.581Z,6.91
2023-01-04T05:16:33.601Z,6.95
2023-01-04T05:17:33.718Z,6.99
2023-01-04T05:18:33.561Z,6.97
2023-01-04T05:19:33.517Z,6.94
2023-01-04T05:20:33.694Z,6.94
2023-01-04T05:21:33.500Z,6.97
2023-01-04T05:22:33.505Z,6.98
2023-01-04T05:23:33.673Z,6.99
2023-01-04T05:24:33.539Z,7.01
2023-01-04T05:25:33.507Z,7.02
2023-01-04T05:26:33.582Z,6.99
2023-01-04T05:27:33.450Z,7.01
2023-01-04T05:28:33.444Z,7.01
2023-01-04T05:29:33.425Z,6.99
2023-01-04T05:30:33.433Z,7.02
2023-01-04T05:31:33.478Z,7.04
2023-01-04T05:32:33.375Z,7.04
2023-01-04T05:33:33.393Z,7.02
2023-01-04T05:34:33.336Z,7.04
2023-01-04T05:35:33.336Z,7.04
2023-01-04T05:36:33.358Z,7.01
2023-01-04T05:37:33.303Z,7.05
2023-01-04T05:38:33.291Z,7.08
2023-01-04T05:39:33.321Z,7.08
2023-01-04T05:40:33.254Z,7.09
2023-01-04T05:41:33.268Z,7.12
2023-01-04T05:42:33.316Z,7.15
2023-01-04T05:43:33.216Z,7.16
2023-01-04T05:44:33.221Z,7.17
2023-01-04T05:45:41.153Z,7.22
2023-01-04T05:46:33.253Z,7.24
2023-01-04T05:47:33.183Z,7.24
2023-01-04T05:48:33.380Z,7.24
2023-01-04T05:49:33.142Z,7.26
2023-01-04T05:50:33.104Z,7.27
2023-01-04T05:51:33.291Z,7.29
2023-01-04T05:52:33.128Z,7.27
2023-01-04T05:53:33.069Z,7.27
2023-01-04T05:54:33.132Z,7.31
2023-01-04T05:55:33.056Z,7.34
2023-01-04T05:56:33.067Z,7.32
2023-01-04T05:57:33.215Z,7.31
2023-01-04T05:58:33.022Z,7.32
2023-01-04T05:59:37.230Z,7.32
2023-01-04T06:00:34.224Z,7.31
2023-01-04T06:01:33.031Z,7.29
2023-01-04T06:02:33.061Z,7.31
2023-01-04T06:03:33.249Z,7.34
2023-01-04T06:04:32.954Z,7.34
2023-01-04T06:05:32.980Z,7.38
2023-01-04T06:06:33.041Z,7.37
2023-01-04T06:07:32.903Z,7.35
2023-01-04T06:08:32.916Z,7.38
2023-01-04T06:09:33.110Z,7.38
2023-01-04T06:10:32.868Z,7.40
2023-01-04T06:11:32.919Z,7.41
2023-01-04T06:12:33.055Z,7.37
2023-01-04T06:13:32.820Z,7.38
2023-01-04T06:14:32.808Z,7.44
2023-01-04T06:15:34.465Z,7.42
2023-01-04T06:16:33.833Z,7.44
2023-01-04T06:17:32.757Z,7.44
2023-01-04T06:18:32.940Z,7.49
2023-01-04T06:19:32.742Z,7.49
2023-01-04T06:20:32.730Z,7.49
2023-01-04T06:21:32.819Z,7.50
2023-01-04T06:22:32.747Z,7.49
2023-01-04T06:23:32.701Z,7.50
2023-01-04T06:24:53.996Z,7.50
2023-01-04T06:25:32.668Z,7.53
2023-01-04T06:26:32.640Z,7.55
2023-01-04T06:27:32.661Z,7.55
2023-01-04T06:28:37.111Z,7.56
2023-01-04T06:29:33.961Z,7.58
2023-01-04T06:30:33.074Z,7.60
2023-01-04T06:31:32.675Z,7.60
2023-01-04T06:32:32.731Z,7.66
2023-01-04T06:33:32.593Z,7.72
2023-01-04T06:34:32.537Z,7.74
2023-01-04T06:35:32.569Z,7.74
2023-01-04T06:36:32.679Z,7.71
2023-01-04T06:37:32.505Z,7.72
2023-01-04T06:38:32.489Z,7.75
2023-01-04T06:39:32.533Z,7.78
2023-01-04T06:40:32.505Z,7.79
2023-01-04T06:41:32.489Z,7.84
2023-01-04T06:42:32.633Z,7.87
2023-01-04T06:43:32.430Z,7.92
2023-01-04T06:44:32.394Z,7.89
2023-01-04T06:45:32.539Z,7.87
2023-01-04T06:46:32.488Z,7.90
2023-01-04T06:47:32.367Z,7.93
2023-01-04T06:48:32.557Z,7.96
2023-01-04T06:49:32.428Z,7.94
2023-01-04T06:50:32.361Z,7.94
2023-01-04T06:51:32.479Z,7.97
2023-01-04T06:52:32.325Z,8.00
2023-01-04T06:53:32.309Z,8.02
2023-01-04T06:54:32.395Z,8.03
2023-01-04T06:55:32.277Z,8.08
2023-01-04T06:56:32.369Z,8.07
2023-01-04T06:57:32.383Z,8.08
2023-01-04T06:58:32.268Z,8.10
2023-01-04T06:59:32.252Z,8.12
2023-01-04T07:00:32.355Z,8.15
2023-01-04T07:01:32.383Z,8.18
2023-01-04T07:02:32.414Z,8.18
2023-01-04T07:03:32.227Z,8.20
2023-01-04T07:04:57.795Z,8.21
2023-01-04T07:05:33.179Z,8.21
2023-01-04T07:06:32.117Z,8.26
2023-01-04T07:07:32.157Z,8.29
2023-01-04T07:08:32.167Z,8.32
2023-01-04T07:09:32.084Z,8.32
2023-01-04T07:10:32.231Z,8.30
2023-01-04T07:11:32.089Z,8.32
2023-01-04T07:12:32.101Z,8.35
2023-01-04T07:13:32.254Z,8.36
2023-01-04T07:14:32.029Z,8.42
2023-01-04T07:15:39.480Z,8.39
2023-01-04T07:16:42.042Z,8.40
2023-01-04T07:17:32.955Z,8.36
2023-01-04T07:18:31.992Z,8.39
2023-01-04T07:19:32.116Z,8.39
2023-01-04T07:20:31.956Z,8.45
2023-01-04T07:21:31.927Z,8.47
2023-01-04T07:22:31.952Z,8.45
2023-01-04T07:23:31.926Z,8.47
2023-01-04T07:24:31.920Z,8.47
2023-01-04T07:25:32.042Z,8.48
2023-01-04T07:26:31.914Z,8.47
2023-01-04T07:27:31.866Z,8.40
2023-01-04T07:28:31.918Z,8.37
2023-01-04T07:29:31.887Z,8.37
2023-01-04T07:30:31.917Z,8.40
2023-01-04T07:31:31.875Z,8.33
2023-01-04T07:32:31.829Z,8.30
2023-01-04T07:33:31.786Z,8.33
2023-01-04T07:34:31.843Z,8.32
2023-01-04T07:35:31.945Z,8.30
2023-01-04T07:36:31.775Z,8.29
2023-01-04T07:37:31.731Z,8.21
2023-01-04T07:38:31.764Z,8.20
2023-01-04T07:39:31.713Z,8.22
2023-01-04T07:40:31.767Z,8.21
2023-01-04T07:41:31.674Z,8.15
2023-01-04T07:42:33.415Z,8.12
2023-01-04T07:43:31.696Z,8.10
2023-01-04T07:44:31.648Z,8.10
2023-01-04T07:45:31.745Z,8.07
2023-01-04T07:46:31.741Z,8.04
2023-01-04T07:47:31.600Z,8.03
2023-01-04T07:48:31.622Z,8.04
2023-01-04T07:49:31.612Z,8.02
2023-01-04T07:50:31.533Z,8.04
2023-01-04T07:51:31.643Z,8.04
2023-01-04T07:52:31.672Z,8.10
2023-01-04T07:55:12.176Z,8.07
2023-01-04T07:55:42.390Z,8.07
2023-01-04T07:56:41.501Z,8.08
2023-01-04T07:57:41.423Z,8.10
2023-01-04T07:58:41.452Z,8.07
2023-01-04T07:59:41.322Z,8.04
2023-01-04T08:00:41.329Z,8.10
2023-01-04T08:01:41.486Z,8.10
2023-01-04T08:02:41.469Z,8.14
2023-01-04T08:03:41.384Z,8.20
2023-01-04T08:04:41.436Z,8.18
2023-01-04T08:06:51.271Z,8.21
2023-01-04T08:08:02.820Z,8.22
2023-01-04T08:08:51.191Z,8.22
2023-01-04T08:10:07.754Z,8.21
2023-01-04T08:10:52.168Z,8.22
2023-01-04T08:11:51.223Z,8.29
2023-01-04T08:12:51.067Z,8.26
2023-01-04T08:13:51.177Z,8.21
2023-01-04T08:14:51.079Z,8.28
2023-01-04T08:15:51.280Z,8.28
2023-01-04T08:16:51.071Z,8.25
2023-01-04T08:19:03.376Z,8.22
2023-01-04T08:20:03.353Z,8.28
2023-01-04T08:21:03.459Z,8.25
2023-01-04T08:23:13.291Z,8.26
2023-01-04T08:24:13.274Z,8.32
2023-01-04T08:25:13.186Z,8.37
2023-01-04T08:26:13.369Z,8.36
2023-01-04T08:27:14.224Z,8.29
2023-01-04T08:28:13.220Z,8.30
2023-01-04T08:29:13.185Z,8.35
2023-01-04T08:30:13.406Z,8.35
2023-01-04T08:31:13.181Z,8.39
2023-01-04T08:32:13.143Z,8.36
2023-01-04T08:33:13.187Z,8.37
2023-01-04T08:34:13.309Z,8.36
2023-01-04T08:35:13.179Z,8.39
2023-01-04T08:36:13.059Z,8.39
2023-01-04T08:37:13.060Z,8.36
2023-01-04T08:38:56.048Z,8.39
2023-01-04T08:39:14.912Z,8.42
2023-01-04T08:40:13.024Z,8.45
2023-01-04T08:41:31.293Z,8.50
2023-01-04T08:42:21.977Z,8.54
2023-01-04T08:43:13.980Z,8.57
2023-01-04T08:44:15.007Z,8.54
2023-01-04T08:45:12.909Z,8.54
2023-01-04T08:46:13.103Z,8.55
2023-01-04T08:47:12.900Z,8.57
2023-01-04T08:48:13.049Z,8.63
2023-01-04T08:49:12.888Z,8.68
2023-01-04T08:50:12.914Z,8.68
2023-01-04T08:51:12.924Z,8.65
2023-01-04T08:52:12.864Z,8.69
2023-01-04T08:53:12.857Z,8.72
2023-01-04T08:54:12.830Z,8.71
2023-01-04T08:55:15.204Z,8.73
2023-01-04T08:56:13.002Z,8.75
2023-01-04T08:57:12.931Z,8.76
2023-01-04T08:58:12.791Z,8.78
2023-01-04T08:59:12.848Z,8.81
2023-01-04T09:00:12.791Z,8.83
2023-01-04T09:01:12.830Z,8.86
2023-01-04T09:02:12.863Z,8.88
2023-01-04T09:03:12.768Z,8.88
2023-01-04T09:04:12.731Z,8.91
2023-01-04T09:05:22.322Z,8.91
2023-01-04T09:06:13.782Z,8.93
2023-01-04T09:07:13.750Z,8.97
2023-01-04T09:08:12.628Z,8.96
2023-01-04T09:09:12.712Z,8.97
2023-01-04T09:10:12.602Z,8.97
2023-01-04T09:11:27.139Z,9.02
2023-01-04T09:12:13.595Z,9.04
2023-01-04T09:13:12.559Z,9.06
2023-01-04T09:14:12.712Z,9.12
2023-01-04T09:15:12.534Z,9.12
2023-01-04T09:16:12.695Z,9.12
2023-01-04T09:18:30.972Z,9.12
2023-01-04T09:19:23.379Z,9.13
2023-01-04T09:20:22.389Z,9.15
2023-01-04T09:21:22.609Z,9.18
2023-01-04T09:22:22.391Z,9.18
2023-01-04T09:23:22.393Z,9.24
2023-01-04T09:24:22.405Z,9.24
2023-01-04T09:25:22.316Z,9.25
2023-01-04T09:26:22.329Z,9.25
2023-01-04T09:27:22.493Z,9.25
2023-01-04T09:28:22.256Z,9.34
2023-01-04T09:29:22.267Z,9.38
2023-01-04T09:30:22.267Z,9.35
2023-01-04T09:31:22.322Z,9.39
2023-01-04T09:32:22.181Z,9.40
2023-01-04T09:33:35.833Z,9.40
2023-01-04T09:34:23.180Z,9.45
2023-01-04T09:35:26.462Z,9.45
2023-01-04T09:36:22.114Z,9.38
2023-01-04T09:37:22.180Z,9.43
2023-01-04T09:38:53.870Z,9.43
2023-01-04T09:39:23.724Z,9.45
2023-01-04T09:40:22.167Z,9.49
2023-01-04T09:41:22.258Z,9.43
2023-01-04T09:42:22.076Z,9.45
2023-01-04T09:43:22.463Z,9.46
2023-01-04T09:44:22.023Z,9.45
2023-01-04T09:45:24.248Z,9.49
2023-01-04T09:46:22.139Z,9.52
2023-01-04T09:47:22.031Z,9.53
2023-01-04T09:48:25.506Z,9.53
2023-01-04T09:49:21.951Z,9.53
2023-01-04T09:50:22.093Z,9.52
2023-01-04T09:51:21.966Z,9.56
2023-01-04T09:52:21.980Z,9.56
2023-01-04T09:53:21.922Z,9.56
2023-01-04T09:54:22.004Z,9.61
2023-01-04T09:55:37.665Z,9.61
2023-01-04T09:56:22.894Z,9.58
2023-01-04T09:57:22.004Z,9.63
2023-01-04T09:58:21.868Z,9.63
2023-01-04T09:59:21.920Z,9.66
2023-01-04T10:00:25.570Z,9.67
2023-01-04T10:01:21.918Z,9.71
2023-01-04T10:02:22.092Z,9.76
2023-01-04T10:03:22.010Z,9.85
2023-01-04T10:04:21.728Z,9.83
2023-01-04T10:05:21.761Z,9.83
2023-01-04T10:06:21.894Z,9.89
2023-01-04T10:07:21.703Z,9.94
2023-01-04T10:08:21.729Z,9.93
2023-01-04T10:09:21.884Z,9.93
2023-01-04T10:10:21.701Z,9.94
2023-01-04T10:11:21.670Z,9.94
2023-01-04T10:12:21.837Z,9.99
2023-01-04T10:13:21.717Z,10.00
2023-01-04T10:14:21.611Z,10.01
2023-01-04T10:15:21.745Z,10.01
2023-01-04T10:17:01.654Z,10.00
2023-01-04T10:17:44.447Z,10.00
2023-01-04T10:21:10.315Z,10.03
2023-01-04T10:21:38.011Z,10.09
2023-01-04T10:22:22.579Z,10.09
2023-01-04T10:23:21.551Z,10.12
2023-01-04T10:24:21.499Z,10.18
2023-01-04T10:25:21.547Z,10.21
2023-01-04T10:26:21.493Z,10.22
2023-01-04T10:27:21.430Z,10.25
2023-01-04T10:28:21.438Z,10.28
2023-01-04T10:29:21.529Z,10.36
2023-01-04T10:30:21.427Z,10.42
2023-01-04T10:31:40.075Z,10.40
2023-01-04T10:32:22.499Z,10.43
2023-01-04T10:33:21.380Z,10.46
2023-01-04T10:34:21.389Z,10.47
2023-01-04T10:35:24.700Z,10.43
2023-01-04T10:36:21.363Z,10.40
2023-01-04T10:37:21.322Z,10.44
2023-01-04T10:38:21.360Z,10.44
2023-01-04T10:39:22.608Z,10.46
2023-01-04T10:40:21.286Z,10.47
2023-01-04T10:41:21.286Z,10.47
2023-01-04T10:42:21.297Z,10.44
2023-01-04T10:43:21.517Z,10.44
2023-01-04T10:44:21.224Z,10.47
2023-01-04T10:45:21.432Z,10.53
2023-01-04T10:46:21.380Z,10.58
2023-01-04T10:47:21.207Z,10.58
2023-01-04T10:48:21.312Z,10.59
2023-01-04T10:49:21.202Z,10.58
2023-01-04T10:50:21.235Z,10.60
2023-01-04T10:51:21.139Z,10.66
2023-01-04T10:52:29.249Z,10.73
2023-01-04T10:53:21.220Z,10.76
2023-01-04T10:54:21.196Z,10.78
2023-01-04T10:55:21.126Z,10.77
2023-01-04T10:56:25.430Z,10.80
2023-01-04T10:57:22.214Z,10.84
2023-01-04T10:58:21.147Z,10.80
2023-01-04T10:59:21.071Z,10.77
2023-01-04T11:00:21.224Z,10.77
2023-01-04T11:01:21.110Z,10.76
2023-01-04T11:02:21.247Z,10.76
2023-01-04T11:03:21.207Z,10.78
2023-01-04T11:04:20.987Z,10.76
2023-01-04T11:05:21.029Z,10.76
2023-01-04T11:06:20.973Z,10.77
2023-01-04T11:07:21.027Z,10.81
2023-01-04T11:08:21.029Z,10.83
2023-01-04T11:09:25.169Z,10.83
2023-01-04T11:10:20.906Z,10.86
2023-01-04T11:11:20.974Z,10.81
2023-01-04T11:12:20.829Z,10.81
2023-01-04T11:13:20.840Z,10.84
2023-01-04T11:14:20.861Z,10.88
2023-01-04T11:15:21.001Z,10.94
2023-01-04T11:16:20.816Z,10.92
2023-01-04T11:17:21.005Z,10.92
2023-01-04T11:18:20.751Z,10.89
2023-01-04T11:19:20.818Z,10.80
2023-01-04T11:20:25.040Z,10.78
2023-01-04T11:21:22.018Z,10.80
2023-01-04T11:22:20.941Z,10.78
2023-01-04T11:23:20.832Z,10.81
2023-01-04T11:24:36.240Z,10.83
2023-01-04T11:25:35.057Z,10.84
2023-01-04T11:26:21.754Z,10.84
2023-01-04T11:27:25.183Z,10.86
2023-01-04T11:28:21.913Z,10.89
2023-01-04T11:29:20.647Z,10.91
2023-01-04T11:30:20.575Z,10.91
2023-01-04T11:31:52.472Z,10.88
2023-01-04T11:32:21.643Z,10.88
2023-01-04T11:33:20.705Z,10.94
2023-01-04T11:34:28.172Z,10.95
2023-01-04T11:35:21.602Z,10.96
2023-01-04T11:36:20.547Z,10.96
2023-01-04T11:37:20.596Z,10.98
2023-01-04T11:38:20.693Z,10.96
2023-01-04T11:39:20.456Z,10.96
2023-01-04T11:40:20.488Z,10.96
2023-01-04T11:41:20.463Z,10.96
2023-01-04T11:42:20.480Z,10.96
2023-01-04T11:43:20.546Z,10.96
2023-01-04T11:44:20.450Z,10.99
2023-01-04T11:45:20.400Z,11.02
2023-01-04T11:46:20.412Z,10.99
2023-01-04T11:47:20.418Z,10.96
2023-01-04T11:48:20.484Z,10.95
2023-01-04T11:49:20.448Z,10.96
2023-01-04T11:50:20.385Z,10.95
2023-01-04T11:51:20.449Z,10.95
2023-01-04T11:52:20.333Z,10.91
2023-01-04T11:53:20.510Z,10.84
2023-01-04T11:54:46.593Z,10.84
2023-01-04T11:55:22.990Z,10.78
2023-01-04T11:56:20.343Z,10.77
2023-01-04T11:57:20.210Z,10.80
2023-01-04T11:58:20.322Z,10.77
2023-01-04T11:59:25.219Z,10.76
2023-01-04T12:00:21.163Z,10.74
2023-01-04T12:01:20.303Z,10.74
2023-01-04T12:02:50.503Z,10.74
2023-01-04T12:03:21.187Z,10.74
2023-01-04T12:04:20.150Z,10.73
2023-01-04T12:05:28.119Z,10.71
2023-01-04T12:06:21.124Z,10.70
2023-01-04T12:07:20.124Z,10.71
2023-01-04T12:08:20.135Z,10.71
2023-01-04T12:09:20.092Z,10.71
2023-01-04T12:10:20.079Z,10.73
2023-01-04T12:11:20.289Z,10.74
2023-01-04T12:12:20.206Z,10.76
2023-01-04T12:13:20.018Z,10.74
2023-01-04T12:14:20.042Z,10.76
2023-01-04T12:15:20.007Z,10.80
2023-01-04T12:16:20.039Z,10.80
2023-01-04T12:17:20.066Z,10.77
2023-01-04T12:18:20.190Z,10.71
2023-01-04T12:19:24.399Z,10.74
2023-01-04T12:20:20.269Z,10.76
2023-01-04T12:21:19.978Z,10.76
2023-01-04T12:22:20.163Z,10.78
2023-01-04T12:23:20.955Z,10.76
2023-01-04T12:24:19.876Z,10.74
2023-01-04T12:25:19.928Z,10.77
2023-01-04T12:26:19.996Z,10.80
2023-01-04T12:27:19.865Z,10.86
2023-01-04T12:28:22.978Z,10.84
2023-01-04T12:29:19.924Z,10.80
2023-01-04T12:30:19.872Z,10.78
2023-01-04T12:31:20.667Z,10.76
2023-01-04T12:32:19.837Z,10.80
2023-01-04T12:33:19.967Z,10.81
2023-01-04T12:34:19.852Z,10.83
2023-01-04T12:35:19.888Z,10.88
2023-01-04T12:36:19.770Z,10.88
2023-01-04T12:37:19.768Z,10.86
2023-01-04T12:38:19.754Z,10.88
2023-01-04T12:39:20.267Z,10.92
2023-01-04T12:40:19.696Z,10.89
2023-01-04T12:41:19.809Z,10.92
2023-01-04T12:42:19.895Z,10.91
2023-01-04T12:43:19.725Z,10.91
2023-01-04T12:44:19.686Z,10.94
2023-01-04T12:45:19.584Z,10.95
2023-01-04T12:46:19.843Z,10.98
2023-01-04T12:47:19.543Z,11.01
2023-01-04T12:48:19.636Z,10.99
2023-01-04T12:49:25.063Z,10.98
2023-01-04T12:50:19.518Z,10.96
2023-01-04T12:51:35.287Z,10.98
2023-01-04T12:52:34.344Z,11.01
2023-01-04T12:53:29.817Z,11.02
2023-01-04T12:54:20.486Z,11.02
2023-01-04T12:55:19.435Z,11.03
2023-01-04T12:56:19.677Z,11.03
2023-01-04T12:57:19.413Z,11.03
2023-01-04T12:58:23.798Z,11.01
2023-01-04T12:59:25.511Z,11.01
2023-01-04T13:00:20.403Z,10.99
2023-01-04T13:01:19.560Z,11.02
2023-01-04T13:02:19.640Z,11.06
2023-01-04T13:03:21.079Z,11.09
2023-01-04T13:04:19.402Z,11.10
2023-01-04T13:06:20.366Z,11.10
2023-01-04T13:07:19.304Z,11.09
2023-01-04T13:08:19.433Z,11.10
2023-01-04T13:09:23.729Z,11.11
2023-01-04T13:10:20.541Z,11.13
2023-01-04T13:11:19.515Z,11.14
2023-01-04T13:12:19.404Z,11.16
2023-01-04T13:13:19.234Z,11.17
2023-01-04T13:14:19.584Z,11.14
2023-01-04T13:15:19.728Z,11.20
2023-01-04T13:16:19.498Z,11.21
2023-01-04T13:17:19.588Z,11.20
2023-01-04T13:18:19.174Z,11.25
2023-01-04T13:19:19.231Z,11.21
2023-01-04T13:20:19.118Z,11.20
2023-01-04T13:21:19.152Z,11.20
2023-01-04T13:22:23.423Z,11.17